Fortescue, NJ

2:46 PM EDT on July 24, 2017 (GMT -0400)
Fortescue, New Jersey | | Change Station
Active Advisory: Areal Flood Warning Active Notice: Public Information Statement

Elev 13 ft 39.24 °N, 75.17 °W | Updated 13 minutes ago

Clear
Clear
83.6 °F
Feels Like 90 °F
N
5.0
Wind Variable Wind from WNW
Gusts 17.0 mph

Today
High -- | Low -- °F
--% Chance of Precip.
Yesterday
High -- | Low -- °F
Precip. -- in
Pressure 29.79 in
Visibility 10.0 miles
Clouds Few 3300 ft
Heat Index 90 °F
Dew Point 73 °F
Humidity 71%
Rainfall 0.28 in
Snow Depth Not available.
5:54 AM 8:19 PM
Waxing Crescent, 3% visible
METAR KMIV 241754Z AUTO 30011G17KT 10SM FEW033 30/22 A2980 RMK AO2 SLP088 60000 T03000222 10300 20228 53007
Pressure 29.79 in
Visibility 10.0 miles
Clouds Few 3300 ft
Heat Index 90 °F
Dew Point 73 °F
Humidity 71%
Rainfall 0.28 in
Snow Depth Not available.
5:54 AM 8:19 PM
Waxing Crescent, 3% visible
METAR KMIV 241754Z AUTO 30011G17KT 10SM FEW033 30/22 A2980 RMK AO2 SLP088 60000 T03000222 10300 20228 53007

Get Your Daily Forecast Email!

Thanks for signing up!

Be on the lookout for a verification email in your inbox.

You'll start receiving severe weather alerts in your inbox..

×

10-Day Weather Forecast

Almanac

Astronomy

Jul. 24, 2017 Rise Set
Actual Time
Civil Twilight
Nautical Twilight
Astronomical Twilight
Moon
Length of Visible Light
Length of Day
Tomorrow will be .
, % of the Moon is Illuminated

Today's Extremes

State Highs State Lows

Community

WunderPhotos

Category 6

Welcome to Category 6. This is the collective home for Weather Underground's featured writeups by Dr. Jeff Masters (right), Bob Henson (left), Chris Burt, and other regular contributors.

Nearby

Air Quality

  Air Quality AQ Index Pollutant
Not available.

Snow Depth

Station Depth Elevation

Earthquake Activity

City Distance Mag. Time & Date
Minimum magnitude displayed is 2.5.

Coastal Water Temperatures

Place Temperature

Stations

Nearby Weather Stations

Station Location Temp. Windchill Dew Point Humidity Wind Precip. Elev Updated Type
                   

Watches & Warnings

Areal Flood Warning
Issued: 1:58 PM EDT Jul. 24, 2017 – National Weather Service

The National Weather Service in Mount Holly NJ has extended the

* Flood Warning for...
north central Cumberland County in southern New Jersey...

* until 630 PM EDT

* at 154 PM EDT, reporting gauges indicate the conhancey river
remains above flood stage due runoff from rainfall amounts of
3 to 5 inches that occurred overnight.

* Some locations that could experience flooding include...
Bridgeton.

Precautionary/preparedness actions...

Turn around, don't drown when encountering flooded roads. Most flood
deaths occur in vehicles.


Lat... Lon 3952 7525 3943 7521 3942 7526 3951 7529


Lf